weather.gov     
National Weather Service

Terminal Aerodrome Forecast
NWS Homepage
This page is being discontinued on March 12, 2014.
The same data is available at this site. Please update your bookmarks.
Thank you, and we apologize for the inconvenience.
Please send an email to SR-SRH.Webmaster@noaa.gov with any concerns.


Current Version
Previous Version:    01  02  03  04  05  06  07  08  09  10  11  12  13  14  15  16  17  18  19  20  21  22  23  24  25  26  27  28  29  
[Printable]
838
FTAK31 PAJN 311100
TAFAPG
TAF
PAPG 311140Z 3112/0112 00000KT P6SM FEW002 SCT120
      TEMPO 3112/3116 2SM BR BKN002
     FM311600 06004KT P6SM SCT150
     FM010400 11004KT P6SM SCT120
     FM010800 00000KT 3SM BR FEW002
      TEMPO 0108/0112 1/2SM FG BKN002
      AMD LTD TO CLD VIS AND WIND TIL 311500=


U.S. Dept. of Commerce
NOAA National Weather Service
1325 East West Highway
Silver Spring, MD 20910
E-mail: w-nws.webmaster@noaa.gov
Page last modified: May 16, 2007
NATIONAL WEATHER SERVICE: for Safety, for Work, for Fun - FOR LIFE